createdAt,value
2017-07-20T18:19:02.463Z,98494.95
2017-07-20T18:24:56.289Z,98486.23
2017-07-20T18:27:24.079Z,98494.23
2017-07-20T18:29:51.587Z,98495.19
2017-07-20T18:32:19.114Z,98504.34
2017-07-20T18:34:46.626Z,98506.08
2017-07-20T18:37:14.099Z,98507.95
2017-07-20T18:39:41.612Z,98502.42
2017-07-20T18:42:09.116Z,98508.71
2017-07-20T18:44:36.625Z,98510.66
2017-07-20T18:47:04.131Z,98511.98
2017-07-20T18:49:32.710Z,98516.59
2017-07-20T18:52:00.342Z,98520.98
2017-07-20T18:54:27.871Z,98518.25
2017-07-20T18:56:55.452Z,98524.66
2017-07-20T18:59:23.381Z,98527.07
2017-07-20T19:01:50.878Z,98528.31
2017-07-20T19:04:18.607Z,98529.64
2017-07-20T19:06:46.086Z,98530.31
2017-07-20T19:09:13.555Z,98527.65
2017-07-20T19:11:41.032Z,98531.85
2017-07-20T19:14:08.539Z,98532.30
2017-07-20T19:16:36.005Z,98533.86
2017-07-20T19:19:03.500Z,98538.73
2017-07-20T19:21:30.964Z,98543.66
2017-07-20T19:23:58.509Z,98543.98
2017-07-20T19:26:26.005Z,98540.27
2017-07-20T19:28:53.472Z,98550.39
2017-07-20T19:31:20.946Z,98556.32
2017-07-20T19:33:49.495Z,98560.61
2017-07-20T19:36:16.981Z,98570.00
2017-07-20T19:38:44.432Z,98573.13
2017-07-20T19:41:11.921Z,98574.33
2017-07-20T19:46:32.054Z,98583.92
2017-07-20T19:48:59.554Z,98583.63
2017-07-20T19:51:27.427Z,98588.91
2017-07-20T19:53:54.952Z,98591.17
2017-07-20T19:56:22.425Z,98589.70
2017-07-20T19:58:49.887Z,98594.94
2017-07-20T20:01:17.366Z,98587.07
2017-07-20T20:03:44.868Z,98597.25
2017-07-20T20:06:12.345Z,98594.91
2017-07-20T20:08:39.833Z,98599.44
2017-07-20T20:11:07.298Z,98605.67
2017-07-20T20:13:34.786Z,98608.06
2017-07-20T20:16:02.280Z,98606.84
2017-07-20T20:18:29.756Z,98613.82
2017-07-20T20:20:57.270Z,98614.15
2017-07-20T20:23:24.737Z,98617.36
2017-07-20T20:25:52.276Z,98616.55
2017-07-20T20:28:19.753Z,98614.77
2017-07-20T20:30:47.403Z,98618.27
2017-07-20T20:33:14.865Z,98628.63
2017-07-20T20:35:42.317Z,98630.98
2017-07-20T20:38:09.819Z,98636.71
2017-07-20T20:40:37.298Z,98647.06
2017-07-20T20:43:04.881Z,98640.06
2017-07-20T20:45:32.368Z,98643.39
2017-07-20T20:48:00.275Z,98645.33
2017-07-20T20:50:27.766Z,98642.38
2017-07-20T20:52:55.232Z,98644.77
2017-07-20T20:55:22.702Z,98645.74
2017-07-20T20:57:50.178Z,98645.74
2017-07-20T21:00:17.721Z,98653.35
2017-07-20T21:02:45.185Z,98658.20
2017-07-20T21:05:12.699Z,98658.01
2017-07-20T21:07:40.182Z,98661.91
2017-07-20T21:10:07.650Z,98661.30
2017-07-20T21:12:35.189Z,98662.25
2017-07-20T21:15:02.661Z,98660.89
2017-07-20T21:17:30.260Z,98667.89
2017-07-20T21:19:57.762Z,98673.55
2017-07-20T21:22:25.217Z,98671.99
2017-07-20T21:24:52.851Z,98672.16
2017-07-20T21:27:20.330Z,98672.75
2017-07-20T21:29:47.831Z,98678.21
2017-07-20T21:32:15.413Z,98673.89
2017-07-20T21:34:42.890Z,98677.80
2017-07-20T21:37:10.388Z,98676.03
2017-07-20T21:39:37.848Z,98677.04
2017-07-20T21:42:05.533Z,98671.57
2017-07-20T21:44:33.483Z,98682.50
2017-07-20T21:47:00.970Z,98678.41
2017-07-20T21:49:28.733Z,98679.19
2017-07-20T21:51:56.196Z,98679.35
2017-07-20T21:54:23.658Z,98682.48
2017-07-20T21:56:51.191Z,98682.67
2017-07-20T21:59:18.687Z,98692.63
2017-07-20T22:01:46.177Z,98685.99
2017-07-20T22:04:13.665Z,98685.04
2017-07-20T22:06:41.141Z,98685.80
2017-07-20T22:09:08.653Z,98686.77
2017-07-20T22:11:36.146Z,98686.38
2017-07-20T22:14:03.603Z,98690.87
2017-07-20T22:16:31.092Z,98689.70
2017-07-20T22:18:58.542Z,98690.51
2017-07-20T22:21:26.161Z,98687.77
2017-07-20T22:23:53.626Z,98695.78
2017-07-20T22:26:21.103Z,98688.75
2017-07-20T22:28:48.644Z,98696.36
2017-07-20T22:31:16.122Z,98695.19
2017-07-20T22:33:43.623Z,98694.61
2017-07-20T22:36:11.079Z,98700.84
2017-07-20T22:38:39.592Z,98699.48
2017-07-20T22:41:07.105Z,98699.31
2017-07-20T22:43:34.571Z,98712.20
2017-07-20T22:46:02.046Z,98700.69
2017-07-20T22:48:29.642Z,98706.31
2017-07-20T22:50:57.117Z,98712.73
2017-07-20T22:53:24.595Z,98711.00
2017-07-20T22:55:52.090Z,98699.92
2017-07-20T22:58:19.562Z,98712.15
2017-07-20T23:00:47.067Z,98714.30
2017-07-20T23:03:14.525Z,98712.73
2017-07-20T23:05:42.022Z,98716.08
2017-07-20T23:08:09.512Z,98713.54
2017-07-20T23:10:36.966Z,98715.32
2017-07-20T23:13:04.487Z,98723.66
2017-07-20T23:15:31.954Z,98726.62
2017-07-20T23:17:59.450Z,98725.64
2017-07-20T23:20:26.904Z,98729.38
2017-07-20T23:22:54.395Z,98730.94
2017-07-20T23:25:21.868Z,98729.57
2017-07-20T23:27:49.371Z,98729.57
2017-07-20T23:30:16.839Z,98724.69
2017-07-20T23:32:44.339Z,98731.50
2017-07-20T23:35:11.824Z,98721.73
2017-07-20T23:37:39.314Z,98721.18
2017-07-20T23:40:06.872Z,98723.32
2017-07-20T23:42:34.470Z,98722.18
2017-07-20T23:45:01.979Z,98729.98
2017-07-20T23:47:29.928Z,98733.49
2017-07-20T23:49:57.996Z,98732.91
2017-07-20T23:52:25.450Z,98732.72
2017-07-20T23:54:52.934Z,98738.35
2017-07-20T23:57:20.408Z,98736.40
2017-07-20T23:59:47.909Z,98733.88
